Terminal Aerodrome Forecast
Issued by NWS

Home | Current Version | Previous Version | Text Only | Print | Product List | Glossary On
Versions: 1 2 3 4 5 6 7 8 9 10 11 12
000
FTUS44 KEPZ 301200 RRA
TAFLRU
TAF
KLRU 301202Z 3012/3112 12014KT P6SM -RA OVC030
      TEMPO 3012/3016 3SM SHRA OVC020
     FM301600 05006KT P6SM -SHRA BKN030
     FM310000 11008KT P6SM VCSH BKN050
      TEMPO 3100/3104 5SM SHRA BKN030=

USA.gov is the U.S. government's official web portal to all federal, state and local government web resources and services.